createdAt,value
2019-01-24T00:00:29.514Z,85.50
2019-01-24T00:01:33.941Z,85.80
2019-01-24T00:02:38.244Z,85.50
2019-01-24T00:03:42.622Z,85.60
2019-01-24T00:04:46.926Z,85.20
2019-01-24T00:05:51.280Z,84.70
2019-01-24T00:06:55.561Z,84.40
2019-01-24T00:07:59.994Z,84.30
2019-01-24T00:09:07.173Z,84.30
2019-01-24T00:10:11.690Z,84.60
2019-01-24T00:11:15.963Z,84.70
2019-01-24T00:12:20.242Z,84.80
2019-01-24T00:13:24.515Z,84.70
2019-01-24T00:14:28.833Z,84.90
2019-01-24T00:15:33.246Z,84.80
2019-01-24T00:16:37.529Z,85.00
2019-01-24T00:17:41.874Z,85.20
2019-01-24T00:18:46.140Z,85.50
2019-01-24T00:19:50.429Z,85.60
2019-01-24T00:20:54.702Z,85.90
2019-01-24T00:21:58.982Z,85.70
2019-01-24T00:23:03.249Z,85.80
2019-01-24T00:24:07.596Z,85.50
2019-01-24T00:25:12.026Z,85.40
2019-01-24T00:26:16.298Z,85.50
2019-01-24T00:27:20.592Z,85.60
2019-01-24T00:28:24.857Z,85.50
2019-01-24T00:29:29.126Z,85.10
2019-01-24T00:30:33.544Z,85.20
2019-01-24T00:31:37.898Z,85.30
2019-01-24T00:32:42.422Z,85.40
2019-01-24T00:33:46.694Z,85.40
2019-01-24T00:34:51.046Z,85.20
2019-01-24T00:35:55.338Z,85.30
2019-01-24T00:36:59.613Z,85.30
2019-01-24T00:38:03.959Z,85.40
2019-01-24T00:39:08.825Z,86.20
2019-01-24T00:40:15.414Z,85.50
2019-01-24T00:41:19.673Z,85.50
2019-01-24T00:42:23.937Z,85.50
2019-01-24T00:43:28.204Z,85.40
2019-01-24T00:44:32.470Z,85.40
2019-01-24T00:45:36.762Z,86.40
2019-01-24T00:46:41.039Z,85.70
2019-01-24T00:47:45.300Z,85.70
2019-01-24T00:48:49.576Z,85.40
2019-01-24T00:49:53.853Z,85.30
2019-01-24T00:50:58.202Z,85.30
2019-01-24T00:52:02.481Z,85.10
2019-01-24T00:53:06.758Z,85.10
2019-01-24T00:54:11.030Z,85.00
2019-01-24T00:55:15.486Z,85.00
2019-01-24T00:56:19.753Z,85.20
2019-01-24T00:57:24.018Z,85.20
2019-01-24T00:58:28.302Z,85.00
2019-01-24T00:59:32.584Z,85.10
2019-01-24T01:00:37.017Z,85.40
2019-01-24T01:01:41.282Z,85.30
2019-01-24T01:02:45.918Z,85.30
2019-01-24T01:03:50.190Z,85.90
2019-01-24T01:04:54.465Z,84.90
2019-01-24T01:05:58.750Z,84.60
2019-01-24T01:07:05.673Z,84.60
2019-01-24T01:08:10.009Z,84.80
2019-01-24T01:09:14.379Z,85.10
2019-01-24T01:10:18.807Z,85.40
2019-01-24T01:11:23.087Z,85.30
2019-01-24T01:12:27.354Z,85.50
2019-01-24T01:13:31.655Z,85.20
2019-01-24T01:14:35.922Z,85.20
2019-01-24T01:15:40.220Z,84.70
2019-01-24T01:16:44.501Z,84.30
2019-01-24T01:17:49.074Z,84.20
2019-01-24T01:18:53.342Z,84.30
2019-01-24T01:19:57.610Z,84.30
2019-01-24T01:21:01.901Z,84.40
2019-01-24T01:22:06.318Z,84.50
2019-01-24T01:23:10.726Z,84.50
2019-01-24T01:24:14.999Z,84.50
2019-01-24T01:25:19.427Z,85.00
2019-01-24T01:26:23.707Z,84.90
2019-01-24T01:27:27.966Z,85.50
2019-01-24T01:28:32.238Z,84.50
2019-01-24T01:29:36.509Z,84.80
2019-01-24T01:30:40.791Z,84.90
2019-01-24T01:31:45.130Z,85.10
2019-01-24T01:32:49.778Z,85.40
2019-01-24T01:33:54.106Z,85.40
2019-01-24T01:34:58.373Z,84.90
2019-01-24T01:36:02.717Z,84.90
2019-01-24T01:37:06.993Z,84.70
2019-01-24T01:38:11.253Z,84.80
2019-01-24T01:39:15.543Z,84.60
2019-01-24T01:40:20.337Z,84.50
2019-01-24T01:41:24.642Z,84.40
2019-01-24T01:42:28.975Z,84.30
2019-01-24T01:43:33.393Z,84.30
2019-01-24T01:44:37.659Z,84.20
2019-01-24T01:45:41.949Z,84.10
2019-01-24T01:46:46.259Z,84.30
2019-01-24T01:47:50.687Z,84.30
2019-01-24T01:48:54.957Z,84.30
2019-01-24T01:49:59.210Z,84.20
2019-01-24T01:51:03.576Z,84.20
2019-01-24T01:52:07.837Z,84.50
2019-01-24T01:53:12.105Z,84.90
2019-01-24T01:54:16.374Z,84.80
2019-01-24T01:55:20.795Z,84.50
2019-01-24T01:56:25.091Z,84.20
2019-01-24T01:57:29.441Z,84.20
2019-01-24T01:58:33.701Z,84.40
2019-01-24T01:59:37.982Z,84.50
2019-01-24T02:00:42.749Z,84.50
2019-01-24T02:01:47.119Z,84.70
2019-01-24T02:02:51.622Z,84.60
2019-01-24T02:03:55.892Z,84.50
2019-01-24T02:05:00.234Z,84.50
2019-01-24T02:06:04.619Z,84.50
2019-01-24T02:07:08.870Z,84.40
2019-01-24T02:08:13.132Z,84.30
2019-01-24T02:09:17.389Z,84.40
2019-01-24T02:10:23.048Z,84.20
2019-01-24T02:11:27.658Z,84.10
2019-01-24T02:12:31.978Z,83.70
2019-01-24T02:13:36.229Z,83.40
2019-01-24T02:14:40.477Z,83.80
2019-01-24T02:15:44.802Z,83.10
2019-01-24T02:16:49.061Z,83.70
2019-01-24T02:17:53.377Z,82.80
2019-01-24T02:18:57.625Z,83.00
2019-01-24T02:20:01.871Z,82.70
2019-01-24T02:21:06.206Z,82.80
2019-01-24T02:22:10.774Z,83.00
2019-01-24T02:23:15.031Z,82.90
2019-01-24T02:24:19.354Z,82.80
2019-01-24T02:25:23.837Z,82.80
2019-01-24T02:26:28.115Z,82.70
2019-01-24T02:27:32.375Z,82.40
2019-01-24T02:28:36.617Z,82.30
2019-01-24T02:29:40.881Z,82.30
2019-01-24T02:30:45.197Z,82.10
2019-01-24T02:31:49.785Z,81.70
2019-01-24T02:32:54.197Z,81.30
2019-01-24T02:33:58.446Z,81.20
2019-01-24T02:35:02.738Z,80.90
2019-01-24T02:36:07.055Z,80.90
2019-01-24T02:37:11.319Z,81.30
2019-01-24T02:38:15.582Z,81.00
2019-01-24T02:39:19.841Z,80.90
2019-01-24T02:40:24.174Z,81.00
2019-01-24T02:41:28.433Z,81.10
2019-01-24T02:42:33.149Z,81.10
2019-01-24T02:43:37.429Z,81.10
2019-01-24T02:44:42.440Z,81.50
2019-01-24T02:45:46.693Z,81.90
2019-01-24T02:46:51.002Z,82.20
2019-01-24T02:47:55.245Z,82.20
2019-01-24T02:48:59.509Z,81.80
2019-01-24T02:50:04.955Z,81.50
2019-01-24T02:51:09.221Z,81.50
2019-01-24T02:52:13.482Z,82.30
2019-01-24T02:53:17.751Z,81.80
2019-01-24T02:54:21.998Z,81.80
2019-01-24T02:55:26.253Z,81.50
2019-01-24T02:56:30.512Z,81.10
2019-01-24T02:57:34.789Z,81.10
2019-01-24T02:58:39.111Z,81.10
2019-01-24T02:59:43.369Z,80.90
2019-01-24T03:00:47.702Z,80.30
2019-01-24T03:01:51.995Z,80.20
2019-01-24T03:02:56.254Z,79.70
2019-01-24T03:04:00.510Z,80.10
2019-01-24T03:05:06.931Z,80.00
2019-01-24T03:06:11.326Z,79.70
2019-01-24T03:07:15.607Z,80.40
2019-01-24T03:08:19.858Z,79.90
2019-01-24T03:09:24.130Z,79.90
2019-01-24T03:10:28.453Z,79.60
2019-01-24T03:11:32.800Z,79.40
2019-01-24T03:12:37.066Z,79.30
2019-01-24T03:13:41.369Z,79.20
2019-01-24T03:14:45.631Z,79.50
2019-01-24T03:15:50.066Z,79.30
2019-01-24T03:16:54.344Z,79.10
2019-01-24T03:17:58.602Z,78.80
2019-01-24T03:19:02.863Z,78.70
2019-01-24T03:20:07.734Z,79.10
2019-01-24T03:21:11.991Z,79.50
2019-01-24T03:22:16.254Z,79.20
2019-01-24T03:23:20.508Z,79.60
2019-01-24T03:24:24.758Z,79.60
2019-01-24T03:25:29.019Z,79.30
2019-01-24T03:26:33.965Z,79.20
2019-01-24T03:27:39.295Z,79.20
2019-01-24T03:28:43.561Z,79.30
2019-01-24T03:29:47.815Z,79.40
2019-01-24T03:30:52.072Z,79.80
2019-01-24T03:31:56.335Z,80.10
2019-01-24T03:33:00.625Z,80.50
2019-01-24T03:34:05.232Z,80.50
2019-01-24T03:35:12.432Z,80.30
2019-01-24T03:36:16.678Z,79.70
2019-01-24T03:37:20.950Z,79.40
2019-01-24T03:38:25.198Z,79.50
2019-01-24T03:39:29.471Z,79.10
2019-01-24T03:40:33.744Z,79.80
2019-01-24T03:41:37.985Z,78.80
2019-01-24T03:42:42.414Z,78.30
2019-01-24T03:43:46.694Z,79.00
2019-01-24T03:44:50.938Z,78.20
2019-01-24T03:45:55.194Z,78.40
2019-01-24T03:46:59.451Z,78.40
2019-01-24T03:48:03.794Z,78.60
2019-01-24T03:49:08.053Z,78.80
2019-01-24T03:50:14.838Z,78.60
2019-01-24T03:51:19.162Z,78.70
2019-01-24T03:52:23.432Z,78.80
2019-01-24T03:53:27.787Z,79.00
2019-01-24T03:54:32.115Z,79.40
2019-01-24T03:55:36.362Z,78.60
2019-01-24T03:56:40.866Z,78.40
2019-01-24T03:57:45.211Z,78.20
2019-01-24T03:58:49.475Z,78.40
2019-01-24T03:59:53.807Z,79.50
2019-01-24T04:00:58.056Z,78.80
2019-01-24T04:02:02.312Z,78.70
2019-01-24T04:03:06.583Z,78.80
2019-01-24T04:04:10.838Z,79.00
2019-01-24T04:05:15.346Z,79.40
2019-01-24T04:06:19.593Z,79.50
2019-01-24T04:07:23.871Z,79.70
2019-01-24T04:08:28.135Z,79.80
2019-01-24T04:09:32.399Z,79.70
2019-01-24T04:10:36.654Z,79.40
2019-01-24T04:11:40.955Z,79.10
2019-01-24T04:12:45.468Z,79.00
2019-01-24T04:13:49.734Z,78.30
2019-01-24T04:14:54.146Z,78.20
2019-01-24T04:15:58.407Z,78.20
2019-01-24T04:17:02.674Z,78.10
2019-01-24T04:18:07.203Z,77.80
2019-01-24T04:19:11.463Z,77.70
2019-01-24T04:20:16.042Z,77.80
2019-01-24T04:21:20.319Z,78.00
2019-01-24T04:22:24.628Z,78.00
2019-01-24T04:23:28.890Z,77.80
2019-01-24T04:24:33.158Z,77.40
2019-01-24T04:25:37.421Z,77.40
2019-01-24T04:26:41.667Z,78.20
2019-01-24T04:27:46.000Z,77.50
2019-01-24T04:28:50.255Z,77.70
2019-01-24T04:29:54.518Z,77.90
2019-01-24T04:30:58.775Z,77.80
2019-01-24T04:32:03.031Z,78.00
2019-01-24T04:33:07.316Z,77.90
2019-01-24T04:34:11.575Z,77.90
2019-01-24T04:35:20.110Z,78.10
2019-01-24T04:36:21.990Z,78.30
2019-01-24T04:37:26.236Z,78.40
2019-01-24T04:38:30.511Z,78.50
2019-01-24T04:39:34.778Z,78.50
2019-01-24T04:40:39.054Z,78.50
2019-01-24T04:41:43.342Z,78.50
2019-01-24T04:42:47.741Z,78.10
2019-01-24T04:43:52.015Z,77.90
2019-01-24T04:44:56.290Z,78.00
2019-01-24T04:46:00.614Z,78.20
2019-01-24T04:47:04.946Z,78.30
2019-01-24T04:48:09.196Z,78.20
2019-01-24T04:49:13.461Z,78.20
2019-01-24T04:50:18.647Z,78.10
2019-01-24T04:51:22.902Z,78.00
2019-01-24T04:52:27.158Z,77.80
2019-01-24T04:53:31.423Z,77.30
2019-01-24T04:54:35.690Z,77.20
2019-01-24T04:55:39.947Z,77.50
2019-01-24T04:56:44.272Z,77.80
2019-01-24T04:57:48.952Z,78.00
2019-01-24T04:58:53.214Z,78.10
2019-01-24T04:59:57.486Z,77.70
2019-01-24T05:01:01.742Z,77.50
2019-01-24T05:02:06.083Z,77.60
2019-01-24T05:03:10.333Z,77.70
2019-01-24T05:04:14.634Z,78.60
2019-01-24T05:05:18.989Z,77.90
2019-01-24T05:06:23.335Z,77.80
2019-01-24T05:07:27.673Z,77.80
2019-01-24T05:08:32.016Z,77.50
2019-01-24T05:09:36.345Z,77.30
2019-01-24T05:10:40.654Z,78.00
2019-01-24T05:11:44.949Z,77.10
2019-01-24T05:12:49.278Z,77.90
2019-01-24T05:13:53.564Z,78.20
2019-01-24T05:14:57.812Z,77.50
2019-01-24T05:16:02.090Z,77.50
2019-01-24T05:17:06.351Z,77.10
2019-01-24T05:18:10.674Z,77.90
2019-01-24T05:19:14.946Z,77.30
2019-01-24T05:20:19.198Z,77.60
2019-01-24T05:21:23.456Z,78.50
2019-01-24T05:22:27.710Z,77.90
2019-01-24T05:23:31.982Z,77.90
2019-01-24T05:24:36.239Z,78.00
2019-01-24T05:25:40.494Z,78.10
2019-01-24T05:26:44.902Z,78.10
2019-01-24T05:27:49.506Z,78.00
2019-01-24T05:28:56.900Z,77.90
2019-01-24T05:30:01.162Z,77.90
2019-01-24T05:31:05.588Z,77.70
2019-01-24T05:32:09.847Z,77.50
2019-01-24T05:33:14.141Z,77.50
2019-01-24T05:34:18.526Z,77.40
2019-01-24T05:35:22.872Z,77.30
2019-01-24T05:36:27.131Z,77.30
2019-01-24T05:37:31.414Z,77.20
2019-01-24T05:38:35.672Z,77.00
2019-01-24T05:39:39.967Z,77.50
2019-01-24T05:40:44.213Z,76.80
2019-01-24T05:41:48.482Z,76.40
2019-01-24T05:42:52.852Z,76.30
2019-01-24T05:43:57.106Z,75.90
2019-01-24T05:45:01.400Z,75.80
2019-01-24T05:46:05.666Z,76.10
2019-01-24T05:47:09.993Z,76.30
2019-01-24T05:48:14.325Z,76.30
2019-01-24T05:49:18.614Z,76.50
2019-01-24T05:50:24.460Z,76.50
2019-01-24T05:51:28.894Z,76.60
2019-01-24T05:52:33.169Z,76.90
2019-01-24T05:53:37.417Z,77.00
2019-01-24T05:54:41.695Z,77.00
2019-01-24T05:55:45.945Z,76.90
2019-01-24T05:56:50.194Z,77.00
2019-01-24T05:57:54.458Z,76.80
2019-01-24T05:58:58.715Z,76.80
2019-01-24T06:00:03.130Z,76.70
2019-01-24T06:01:08.853Z,76.80
2019-01-24T06:02:13.191Z,76.90
2019-01-24T06:03:17.437Z,77.00
2019-01-24T06:04:21.779Z,77.00
2019-01-24T06:05:26.054Z,76.80
2019-01-24T06:06:30.366Z,76.70
2019-01-24T06:07:34.621Z,76.50
2019-01-24T06:08:38.977Z,77.30
2019-01-24T06:09:43.244Z,76.70
2019-01-24T06:10:47.517Z,76.60
2019-01-24T06:11:51.786Z,76.50
2019-01-24T06:12:56.062Z,76.30
2019-01-24T06:14:00.369Z,76.20
2019-01-24T06:15:05.494Z,76.20
2019-01-24T06:16:09.745Z,76.40
2019-01-24T06:17:14.070Z,76.30
2019-01-24T06:18:18.336Z,76.60
2019-01-24T06:19:22.590Z,76.90
2019-01-24T06:20:26.852Z,77.00
2019-01-24T06:21:31.195Z,76.90
2019-01-24T06:22:35.518Z,76.80
2019-01-24T06:23:39.794Z,76.80
2019-01-24T06:24:44.037Z,76.90
2019-01-24T06:25:48.370Z,77.00
2019-01-24T06:26:52.646Z,76.90
2019-01-24T06:27:56.909Z,77.00
2019-01-24T06:29:02.980Z,77.20
2019-01-24T06:30:14.670Z,77.90
2019-01-24T06:31:19.390Z,76.70
2019-01-24T06:32:35.548Z,76.50
2019-01-24T06:33:39.930Z,76.50
2019-01-24T06:34:44.188Z,77.30
2019-01-24T06:35:49.070Z,76.50
2019-01-24T06:36:53.731Z,76.70
2019-01-24T06:37:58.097Z,77.10
2019-01-24T06:39:02.573Z,77.50
2019-01-24T06:40:08.012Z,77.70
2019-01-24T06:41:12.258Z,77.80
2019-01-24T06:42:16.550Z,77.70
2019-01-24T06:43:20.950Z,77.50
2019-01-24T06:44:25.335Z,77.70
2019-01-24T06:45:29.597Z,77.80
2019-01-24T06:46:33.858Z,77.70
2019-01-24T06:47:38.145Z,77.50
2019-01-24T06:48:42.414Z,77.30
2019-01-24T06:49:46.695Z,77.10
2019-01-24T06:50:50.985Z,77.30
2019-01-24T06:51:55.270Z,77.50
2019-01-24T06:52:59.517Z,77.20
2019-01-24T06:54:03.879Z,77.60
2019-01-24T06:55:09.755Z,77.40
2019-01-24T06:56:14.026Z,77.30
2019-01-24T06:57:18.275Z,77.10
2019-01-24T06:58:22.562Z,77.30
2019-01-24T06:59:26.852Z,77.40
2019-01-24T07:00:31.111Z,77.40
2019-01-24T07:01:35.375Z,77.40
2019-01-24T07:02:40.020Z,77.50
2019-01-24T07:03:44.302Z,77.40
2019-01-24T07:04:48.610Z,77.70
2019-01-24T07:05:55.402Z,78.00
2019-01-24T07:06:58.904Z,78.20
2019-01-24T07:08:03.194Z,78.40
2019-01-24T07:09:08.739Z,78.40
2019-01-24T07:10:15.022Z,78.20
2019-01-24T07:11:19.381Z,77.80
2019-01-24T07:12:23.668Z,77.90
2019-01-24T07:13:27.922Z,77.70
2019-01-24T07:14:32.190Z,77.60
2019-01-24T07:15:36.446Z,77.70
2019-01-24T07:16:40.749Z,77.90
2019-01-24T07:17:45.289Z,77.50
2019-01-24T07:18:49.526Z,77.30
2019-01-24T07:19:53.782Z,77.20
2019-01-24T07:20:58.650Z,77.50
2019-01-24T07:22:02.974Z,77.60
2019-01-24T07:23:07.613Z,77.90
2019-01-24T07:24:11.870Z,78.10
2019-01-24T07:25:18.698Z,78.10
2019-01-24T07:26:23.130Z,77.90
2019-01-24T07:27:27.504Z,77.90
2019-01-24T07:28:32.021Z,77.90
2019-01-24T07:29:36.301Z,78.00
2019-01-24T07:30:40.605Z,77.90
2019-01-24T07:31:44.907Z,77.80
2019-01-24T07:32:49.323Z,77.50
2019-01-24T07:33:53.562Z,77.70
2019-01-24T07:34:57.898Z,78.00
2019-01-24T07:36:02.521Z,78.40
2019-01-24T07:37:06.921Z,78.40
2019-01-24T07:38:11.154Z,78.40
2019-01-24T07:39:15.526Z,78.50
2019-01-24T07:40:19.913Z,78.50
2019-01-24T07:41:24.206Z,78.60
2019-01-24T07:42:28.477Z,78.30
2019-01-24T07:43:32.730Z,77.80
2019-01-24T07:44:36.978Z,77.50
2019-01-24T07:45:41.790Z,77.50
2019-01-24T07:46:46.050Z,77.20
2019-01-24T07:47:50.316Z,77.60
2019-01-24T07:48:54.587Z,77.50
2019-01-24T07:49:58.858Z,76.80
2019-01-24T07:51:03.225Z,76.60
2019-01-24T07:52:08.334Z,76.60
2019-01-24T07:53:12.749Z,76.80
2019-01-24T07:54:17.015Z,76.90
2019-01-24T07:55:21.326Z,76.90
2019-01-24T07:56:25.591Z,77.00
2019-01-24T07:57:29.862Z,77.10
2019-01-24T07:58:34.145Z,77.10
2019-01-24T07:59:38.409Z,77.20
2019-01-24T08:00:42.745Z,77.00
2019-01-24T08:01:47.011Z,76.90
2019-01-24T08:02:51.534Z,76.40
2019-01-24T08:03:55.794Z,76.10
2019-01-24T08:05:00.085Z,76.30
2019-01-24T08:06:09.006Z,76.30
2019-01-24T08:07:10.470Z,76.40
2019-01-24T08:08:14.733Z,76.60
2019-01-24T08:09:18.995Z,76.60
2019-01-24T08:10:23.559Z,76.70
2019-01-24T08:11:27.810Z,77.00
2019-01-24T08:12:32.070Z,77.20
2019-01-24T08:13:36.326Z,76.90
2019-01-24T08:14:40.586Z,76.50
2019-01-24T08:15:45.781Z,76.30
2019-01-24T08:16:50.285Z,76.40
2019-01-24T08:17:54.546Z,76.30
2019-01-24T08:18:58.817Z,76.50
2019-01-24T08:20:03.155Z,77.50
2019-01-24T08:21:07.492Z,76.20
2019-01-24T08:22:11.877Z,75.80
2019-01-24T08:23:16.186Z,75.90
2019-01-24T08:24:20.463Z,75.90
2019-01-24T08:25:24.797Z,75.70
2019-01-24T08:26:29.060Z,75.30
2019-01-24T08:27:33.330Z,75.40
2019-01-24T08:28:37.590Z,75.50
2019-01-24T08:29:41.846Z,75.40
2019-01-24T08:30:46.098Z,75.10
2019-01-24T08:31:50.362Z,75.50
2019-01-24T08:32:54.778Z,75.50
2019-01-24T08:33:59.043Z,75.40
2019-01-24T08:35:03.374Z,75.20
2019-01-24T08:36:07.706Z,75.40
2019-01-24T08:37:12.001Z,75.10
2019-01-24T08:38:16.256Z,75.00
2019-01-24T08:39:20.517Z,74.80
2019-01-24T08:40:25.077Z,75.00
2019-01-24T08:41:29.338Z,75.10
2019-01-24T08:42:33.618Z,75.00
2019-01-24T08:43:37.882Z,75.10
2019-01-24T08:44:42.149Z,74.80
2019-01-24T08:45:46.488Z,75.00
2019-01-24T08:46:50.750Z,74.90
2019-01-24T08:47:55.096Z,74.60
2019-01-24T08:48:59.362Z,74.30
2019-01-24T08:50:04.486Z,74.20
2019-01-24T08:51:08.746Z,74.30
2019-01-24T08:52:13.012Z,74.70
2019-01-24T08:53:17.278Z,74.50
2019-01-24T08:54:21.547Z,75.30
2019-01-24T08:55:28.418Z,74.50
2019-01-24T08:56:32.676Z,74.70
2019-01-24T08:57:36.935Z,74.00
2019-01-24T08:58:41.195Z,73.50
2019-01-24T08:59:45.546Z,73.40
2019-01-24T09:00:49.826Z,73.80
2019-01-24T09:01:54.088Z,73.90
2019-01-24T09:02:58.418Z,74.10
2019-01-24T09:04:02.982Z,74.10
2019-01-24T09:05:07.528Z,73.80
2019-01-24T09:06:11.874Z,73.50
2019-01-24T09:07:16.134Z,73.50
2019-01-24T09:08:20.395Z,73.70
2019-01-24T09:09:24.658Z,73.30
2019-01-24T09:10:31.244Z,73.70
2019-01-24T09:11:35.490Z,74.10
2019-01-24T09:12:39.759Z,73.20
2019-01-24T09:13:44.086Z,72.40
2019-01-24T09:14:48.366Z,71.70
2019-01-24T09:15:52.659Z,71.90
2019-01-24T09:16:56.913Z,71.90
2019-01-24T09:18:01.246Z,71.70
2019-01-24T09:19:05.680Z,71.90
2019-01-24T09:20:11.992Z,72.20
2019-01-24T09:21:16.262Z,72.60
2019-01-24T09:22:20.535Z,72.30
2019-01-24T09:23:24.778Z,71.70
2019-01-24T09:24:29.034Z,72.60
2019-01-24T09:25:33.306Z,72.00
2019-01-24T09:26:37.654Z,71.20
2019-01-24T09:27:42.083Z,71.10
2019-01-24T09:28:46.334Z,70.60
2019-01-24T09:29:50.598Z,70.50
2019-01-24T09:30:54.865Z,70.40
2019-01-24T09:31:59.126Z,70.30
2019-01-24T09:33:03.467Z,70.20
2019-01-24T09:34:07.726Z,70.40
2019-01-24T09:35:12.161Z,70.40
2019-01-24T09:36:16.490Z,71.20
2019-01-24T09:37:20.830Z,70.90
2019-01-24T09:38:25.098Z,71.00
2019-01-24T09:39:29.364Z,70.90
2019-01-24T09:40:33.638Z,71.50
2019-01-24T09:41:37.911Z,71.00
2019-01-24T09:42:42.178Z,70.40
2019-01-24T09:43:46.433Z,70.20
2019-01-24T09:44:50.710Z,70.10
2019-01-24T09:45:54.979Z,69.80
2019-01-24T09:46:59.226Z,69.90
2019-01-24T09:48:03.817Z,69.80
2019-01-24T09:49:08.074Z,69.80
2019-01-24T09:50:15.022Z,69.60
2019-01-24T09:51:19.286Z,70.10
2019-01-24T09:52:23.712Z,69.50
2019-01-24T09:53:27.962Z,69.30
2019-01-24T09:54:32.222Z,68.90
2019-01-24T09:55:36.591Z,68.50
2019-01-24T09:56:40.926Z,68.30
2019-01-24T09:57:46.926Z,68.60
2019-01-24T09:58:51.270Z,68.20
2019-01-24T09:59:55.534Z,68.10
2019-01-24T10:00:59.826Z,68.00
2019-01-24T10:02:04.334Z,67.90
2019-01-24T10:03:08.747Z,67.70
2019-01-24T10:04:13.002Z,67.60
2019-01-24T10:05:17.806Z,68.00
2019-01-24T10:06:22.082Z,68.10
2019-01-24T10:07:26.351Z,69.40
2019-01-24T10:08:30.622Z,68.20
2019-01-24T10:09:34.888Z,68.10
2019-01-24T10:10:39.134Z,68.50
2019-01-24T10:11:43.406Z,68.40
2019-01-24T10:12:47.660Z,68.40
2019-01-24T10:13:51.935Z,69.00
2019-01-24T10:14:56.263Z,68.30
2019-01-24T10:16:00.518Z,68.60
2019-01-24T10:17:04.950Z,68.80
2019-01-24T10:18:09.270Z,69.10
2019-01-24T10:19:13.610Z,69.50
2019-01-24T10:20:19.286Z,70.10
2019-01-24T10:21:23.622Z,70.70
2019-01-24T10:22:27.891Z,70.80
2019-01-24T10:23:32.149Z,70.30
2019-01-24T10:24:36.422Z,69.50
2019-01-24T10:25:40.853Z,68.70
2019-01-24T10:26:45.178Z,68.50
2019-01-24T10:27:49.570Z,68.90
2019-01-24T10:28:53.838Z,69.60
2019-01-24T10:29:58.096Z,70.00
2019-01-24T10:31:02.361Z,69.80
2019-01-24T10:32:06.702Z,69.60
2019-01-24T10:33:11.048Z,69.70
2019-01-24T10:34:15.466Z,69.70
2019-01-24T10:35:19.932Z,70.40
2019-01-24T10:36:24.229Z,69.70
2019-01-24T10:37:28.499Z,70.50
2019-01-24T10:38:32.786Z,69.70
2019-01-24T10:39:37.068Z,69.80
2019-01-24T10:40:41.389Z,70.20
2019-01-24T10:41:45.755Z,70.00
2019-01-24T10:42:50.183Z,70.20
2019-01-24T10:43:54.515Z,70.00
2019-01-24T10:44:58.765Z,70.80
2019-01-24T10:46:03.181Z,70.30
2019-01-24T10:47:07.438Z,70.60
2019-01-24T10:48:11.707Z,69.30
2019-01-24T10:49:15.954Z,69.50
2019-01-24T10:50:21.566Z,68.90
2019-01-24T10:51:25.819Z,68.40
2019-01-24T10:52:30.066Z,68.50
2019-01-24T10:53:34.343Z,68.40
2019-01-24T10:54:38.599Z,68.40
2019-01-24T10:55:42.941Z,69.00
2019-01-24T10:56:47.169Z,69.30
2019-01-24T10:57:52.094Z,69.00
2019-01-24T10:58:56.433Z,68.40
2019-01-24T11:00:00.769Z,68.80
2019-01-24T11:01:05.575Z,68.70
2019-01-24T11:02:10.502Z,69.20
2019-01-24T11:03:19.360Z,68.90
2019-01-24T11:04:23.611Z,68.10
2019-01-24T11:05:27.870Z,67.90
2019-01-24T11:06:32.121Z,67.80
2019-01-24T11:07:36.397Z,67.70
2019-01-24T11:08:40.749Z,68.40
2019-01-24T11:09:45.020Z,68.30
2019-01-24T11:10:49.274Z,68.50
2019-01-24T11:11:54.001Z,68.60
2019-01-24T11:12:58.361Z,68.10
2019-01-24T11:14:02.643Z,68.30
2019-01-24T11:15:09.558Z,68.70
2019-01-24T11:16:13.838Z,68.90
2019-01-24T11:17:18.095Z,68.90
2019-01-24T11:18:22.347Z,69.00
2019-01-24T11:19:26.626Z,68.70
2019-01-24T11:20:30.941Z,68.40
2019-01-24T11:21:35.209Z,68.60
2019-01-24T11:22:39.554Z,68.80
2019-01-24T11:23:43.908Z,68.50
2019-01-24T11:24:48.179Z,68.90
2019-01-24T11:25:52.528Z,66.80
2019-01-24T11:26:56.794Z,66.40
2019-01-24T11:28:01.121Z,66.40
2019-01-24T11:29:05.389Z,66.50
2019-01-24T11:30:11.521Z,66.50
2019-01-24T11:31:15.802Z,66.40
2019-01-24T11:32:20.349Z,67.00
2019-01-24T11:33:24.637Z,67.20
2019-01-24T11:34:28.938Z,66.80
2019-01-24T11:35:34.418Z,66.90
2019-01-24T11:36:38.762Z,66.40
2019-01-24T11:37:43.183Z,66.30
2019-01-24T11:38:47.431Z,66.80
2019-01-24T11:39:51.715Z,66.80
2019-01-24T11:40:56.005Z,66.80
2019-01-24T11:42:00.287Z,67.50
2019-01-24T11:43:05.172Z,66.60
2019-01-24T11:44:09.960Z,66.90
2019-01-24T11:45:15.012Z,66.70
2019-01-24T11:46:19.277Z,67.00
2019-01-24T11:47:24.520Z,66.70
2019-01-24T11:48:28.874Z,66.70
2019-01-24T11:49:33.175Z,66.90
2019-01-24T11:50:37.510Z,67.20
2019-01-24T11:51:41.762Z,67.00
2019-01-24T11:52:46.401Z,66.80
2019-01-24T11:53:53.200Z,67.20
2019-01-24T11:54:56.736Z,67.70
2019-01-24T11:56:00.993Z,67.00
2019-01-24T11:57:05.349Z,67.40
2019-01-24T11:58:09.743Z,66.50
2019-01-24T11:59:14.049Z,66.00
2019-01-24T12:00:24.533Z,66.10
2019-01-24T12:01:28.803Z,65.70
2019-01-24T12:02:39.550Z,65.60
2019-01-24T12:03:39.310Z,65.90
2019-01-24T12:04:43.606Z,66.20
2019-01-24T12:05:48.014Z,65.20
2019-01-24T12:06:52.262Z,65.20
2019-01-24T12:07:56.774Z,65.10
2019-01-24T12:09:01.077Z,65.30
2019-01-24T12:10:07.369Z,65.70
2019-01-24T12:11:11.633Z,65.80
2019-01-24T12:12:15.881Z,66.10
2019-01-24T12:13:20.212Z,65.00
2019-01-24T12:14:24.469Z,64.50
2019-01-24T12:15:28.851Z,64.40
2019-01-24T12:16:33.182Z,65.00
2019-01-24T12:17:37.510Z,65.40
2019-01-24T12:18:41.820Z,65.60
2019-01-24T12:19:46.082Z,65.70
2019-01-24T12:20:50.418Z,65.80
2019-01-24T12:21:54.694Z,64.70
2019-01-24T12:22:59.026Z,64.90
2019-01-24T12:24:03.293Z,64.80
2019-01-24T12:25:08.063Z,65.40
2019-01-24T12:26:12.442Z,65.10
2019-01-24T12:27:16.690Z,65.10
2019-01-24T12:28:20.978Z,65.50
2019-01-24T12:29:25.265Z,65.60
2019-01-24T12:30:31.440Z,65.30
2019-01-24T12:31:35.716Z,64.20
2019-01-24T12:32:40.044Z,64.30
2019-01-24T12:33:44.312Z,65.00
2019-01-24T12:34:48.597Z,64.00
2019-01-24T12:35:52.963Z,64.90
2019-01-24T12:36:57.239Z,64.60
2019-01-24T12:38:01.611Z,64.70
2019-01-24T12:39:08.843Z,64.50
2019-01-24T12:40:13.380Z,64.40
2019-01-24T12:41:17.648Z,64.40
2019-01-24T12:42:21.902Z,64.40
2019-01-24T12:43:26.257Z,64.00
2019-01-24T12:44:30.579Z,64.20
2019-01-24T12:45:36.338Z,64.00
2019-01-24T12:46:40.605Z,64.20
2019-01-24T12:47:44.924Z,64.30
2019-01-24T12:48:49.236Z,63.80
2019-01-24T12:49:53.563Z,63.40
2019-01-24T12:50:57.841Z,63.30
2019-01-24T12:52:02.175Z,62.90
2019-01-24T12:53:07.612Z,63.30
2019-01-24T12:54:12.038Z,64.30
2019-01-24T12:55:16.626Z,63.70
2019-01-24T12:56:20.925Z,63.60
2019-01-24T12:57:25.290Z,64.20
2019-01-24T12:58:29.570Z,62.90
2019-01-24T12:59:33.835Z,62.70
2019-01-24T13:00:39.265Z,62.60
2019-01-24T13:01:43.587Z,62.70
2019-01-24T13:02:47.840Z,62.80
2019-01-24T13:03:52.302Z,62.90
2019-01-24T13:04:56.579Z,63.20
2019-01-24T13:06:00.910Z,63.60
2019-01-24T13:07:05.267Z,64.00
2019-01-24T13:08:09.618Z,63.90
2019-01-24T13:09:13.876Z,63.70
2019-01-24T13:10:20.520Z,64.00
2019-01-24T13:11:24.793Z,64.30
2019-01-24T13:12:29.052Z,64.40
2019-01-24T13:13:33.345Z,64.70
2019-01-24T13:14:37.618Z,64.70
2019-01-24T13:15:42.052Z,64.80
2019-01-24T13:16:46.341Z,65.70
2019-01-24T13:17:50.597Z,66.00
2019-01-24T13:18:54.891Z,65.60
2019-01-24T13:19:59.182Z,65.10
2019-01-24T13:21:03.445Z,64.80
2019-01-24T13:22:07.819Z,65.20
2019-01-24T13:23:12.162Z,65.00
2019-01-24T13:24:16.458Z,65.20
2019-01-24T13:25:25.626Z,64.60
2019-01-24T13:26:29.887Z,64.00
2019-01-24T13:27:34.195Z,63.80
2019-01-24T13:28:38.450Z,63.90
2019-01-24T13:29:42.710Z,64.00
2019-01-24T13:30:46.965Z,64.60
2019-01-24T13:31:51.250Z,64.70
2019-01-24T13:32:55.686Z,65.00
2019-01-24T13:33:59.937Z,65.10
2019-01-24T13:35:04.479Z,65.40
2019-01-24T13:36:08.926Z,65.00
2019-01-24T13:37:13.236Z,65.20
2019-01-24T13:38:17.553Z,65.80
2019-01-24T13:39:21.847Z,65.50
2019-01-24T13:40:30.518Z,65.30
2019-01-24T13:41:34.877Z,65.30
2019-01-24T13:42:39.226Z,65.50
2019-01-24T13:43:43.486Z,65.50
2019-01-24T13:44:47.741Z,65.40
2019-01-24T13:45:52.018Z,65.50
2019-01-24T13:46:56.334Z,64.20
2019-01-24T13:48:00.714Z,63.90
2019-01-24T13:49:05.087Z,64.10
2019-01-24T13:50:11.779Z,64.50